sensor_id;sensor_type;location;lat;lon;timestamp;temperature;humidity
46732;DHT22;32477;51.474;5.696;2023-02-01T00:00:22;5.60;99.90
46732;DHT22;32477;51.474;5.696;2023-02-01T00:02:48;5.40;99.90
46732;DHT22;32477;51.474;5.696;2023-02-01T00:05:14;5.40;99.90
46732;DHT22;32477;51.474;5.696;2023-02-01T00:07:39;5.30;99.90
46732;DHT22;32477;51.474;5.696;2023-02-01T00:10:06;5.30;99.90
46732;DHT22;32477;51.474;5.696;2023-02-01T00:12:32;5.30;99.90
46732;DHT22;32477;51.474;5.696;2023-02-01T00:14:57;5.20;99.90
46732;DHT22;32477;51.474;5.696;2023-02-01T00:17:23;5.20;99.90
46732;DHT22;32477;51.474;5.696;2023-02-01T00:19:49;5.10;99.90
46732;DHT22;32477;51.474;5.696;2023-02-01T00:22:15;5.10;99.90
46732;DHT22;32477;51.474;5.696;2023-02-01T00:24:40;5.10;99.90
46732;DHT22;32477;51.474;5.696;2023-02-01T00:27:06;5.10;99.90
46732;DHT22;32477;51.474;5.696;2023-02-01T00:29:32;5.00;99.90
46732;DHT22;32477;51.474;5.696;2023-02-01T00:31:57;5.00;99.90
46732;DHT22;32477;51.474;5.696;2023-02-01T00:34:23;5.10;99.90
46732;DHT22;32477;51.474;5.696;2023-02-01T00:36:49;5.10;99.90
46732;DHT22;32477;51.474;5.696;2023-02-01T00:39:16;5.20;99.90
46732;DHT22;32477;51.474;5.696;2023-02-01T00:41:42;5.20;99.90
46732;DHT22;32477;51.474;5.696;2023-02-01T00:44:08;5.20;99.90
46732;DHT22;32477;51.474;5.696;2023-02-01T00:46:33;5.10;99.90
46732;DHT22;32477;51.474;5.696;2023-02-01T00:48:59;5.10;99.90
46732;DHT22;32477;51.474;5.696;2023-02-01T00:51:27;5.00;99.90
46732;DHT22;32477;51.474;5.696;2023-02-01T00:53:53;4.90;99.90
46732;DHT22;32477;51.474;5.696;2023-02-01T00:56:19;4.90;99.90
46732;DHT22;32477;51.474;5.696;2023-02-01T00:58:44;4.90;99.90
46732;DHT22;32477;51.474;5.696;2023-02-01T01:01:22;4.80;99.90
46732;DHT22;32477;51.474;5.696;2023-02-01T01:03:54;4.80;99.90
46732;DHT22;32477;51.474;5.696;2023-02-01T01:06:23;4.80;99.90
46732;DHT22;32477;51.474;5.696;2023-02-01T01:08:51;4.80;99.90
46732;DHT22;32477;51.474;5.696;2023-02-01T01:11:21;4.70;99.90
46732;DHT22;32477;51.474;5.696;2023-02-01T01:13:49;4.70;99.90
46732;DHT22;32477;51.474;5.696;2023-02-01T01:16:16;4.60;99.90
46732;DHT22;32477;51.474;5.696;2023-02-01T01:18:42;4.60;99.90
46732;DHT22;32477;51.474;5.696;2023-02-01T01:21:09;4.60;99.90
46732;DHT22;32477;51.474;5.696;2023-02-01T01:23:35;4.50;99.90
46732;DHT22;32477;51.474;5.696;2023-02-01T01:26:15;4.50;99.90
46732;DHT22;32477;51.474;5.696;2023-02-01T01:28:40;4.50;99.90
46732;DHT22;32477;51.474;5.696;2023-02-01T01:31:11;4.50;99.90
46732;DHT22;32477;51.474;5.696;2023-02-01T01:33:37;4.50;99.90
46732;DHT22;32477;51.474;5.696;2023-02-01T01:36:08;4.50;99.90
46732;DHT22;32477;51.474;5.696;2023-02-01T01:38:36;4.40;99.90
46732;DHT22;32477;51.474;5.696;2023-02-01T01:41:02;4.40;99.90
46732;DHT22;32477;51.474;5.696;2023-02-01T01:43:58;4.30;99.90
46732;DHT22;32477;51.474;5.696;2023-02-01T01:46:30;4.20;99.90
46732;DHT22;32477;51.474;5.696;2023-02-01T01:49:18;4.30;99.90
46732;DHT22;32477;51.474;5.696;2023-02-01T01:51:49;4.30;99.90
46732;DHT22;32477;51.474;5.696;2023-02-01T01:54:21;4.30;99.90
46732;DHT22;32477;51.474;5.696;2023-02-01T01:56:55;4.20;99.90
46732;DHT22;32477;51.474;5.696;2023-02-01T01:59:22;4.20;99.90
46732;DHT22;32477;51.474;5.696;2023-02-01T02:01:48;4.20;99.90
46732;DHT22;32477;51.474;5.696;2023-02-01T02:04:14;4.30;99.90
46732;DHT22;32477;51.474;5.696;2023-02-01T02:06:45;4.40;99.90
46732;DHT22;32477;51.474;5.696;2023-02-01T02:09:14;4.40;99.90
46732;DHT22;32477;51.474;5.696;2023-02-01T02:11:40;4.30;99.90
46732;DHT22;32477;51.474;5.696;2023-02-01T02:14:08;4.30;99.90
46732;DHT22;32477;51.474;5.696;2023-02-01T02:16:45;4.40;99.90
46732;DHT22;32477;51.474;5.696;2023-02-01T02:25:42;4.20;99.90
46732;DHT22;32477;51.474;5.696;2023-02-01T02:36:32;4.70;99.90
46732;DHT22;32477;51.474;5.696;2023-02-01T02:39:22;4.70;99.90
46732;DHT22;32477;51.474;5.696;2023-02-01T02:42:12;4.80;99.90
46732;DHT22;32477;51.474;5.696;2023-02-01T02:45:07;4.80;99.90
46732;DHT22;32477;51.474;5.696;2023-02-01T02:48:04;4.80;99.90
46732;DHT22;32477;51.474;5.696;2023-02-01T02:50:41;4.80;99.90
46732;DHT22;32477;51.474;5.696;2023-02-01T02:53:57;4.90;99.90
46732;DHT22;32477;51.474;5.696;2023-02-01T02:56:43;4.90;99.90
46732;DHT22;32477;51.474;5.696;2023-02-01T02:59:28;4.90;99.90
46732;DHT22;32477;51.474;5.696;2023-02-01T03:02:15;4.90;99.90
46732;DHT22;32477;51.474;5.696;2023-02-01T03:05:01;4.90;99.90
46732;DHT22;32477;51.474;5.696;2023-02-01T03:13:09;5.10;99.90
46732;DHT22;32477;51.474;5.696;2023-02-01T03:18:50;5.10;99.90
46732;DHT22;32477;51.474;5.696;2023-02-01T03:21:46;5.10;99.90
46732;DHT22;32477;51.474;5.696;2023-02-01T03:24:39;5.00;99.90
46732;DHT22;32477;51.474;5.696;2023-02-01T03:30:04;4.90;99.90
46732;DHT22;32477;51.474;5.696;2023-02-01T03:32:32;4.90;99.90
46732;DHT22;32477;51.474;5.696;2023-02-01T03:35:20;4.90;99.90
46732;DHT22;32477;51.474;5.696;2023-02-01T03:37:49;4.90;99.90
46732;DHT22;32477;51.474;5.696;2023-02-01T03:40:18;5.00;99.90
46732;DHT22;32477;51.474;5.696;2023-02-01T03:42:49;5.00;99.90
46732;DHT22;32477;51.474;5.696;2023-02-01T03:45:27;5.00;99.90
46732;DHT22;32477;51.474;5.696;2023-02-01T03:47:56;5.10;99.90
46732;DHT22;32477;51.474;5.696;2023-02-01T03:50:26;5.00;99.90
46732;DHT22;32477;51.474;5.696;2023-02-01T03:52:59;5.00;99.90
46732;DHT22;32477;51.474;5.696;2023-02-01T03:55:28;4.90;99.90
46732;DHT22;32477;51.474;5.696;2023-02-01T03:58:01;4.80;99.90
46732;DHT22;32477;51.474;5.696;2023-02-01T04:00:28;4.70;99.90
46732;DHT22;32477;51.474;5.696;2023-02-01T04:02:53;4.60;99.90
46732;DHT22;32477;51.474;5.696;2023-02-01T04:05:20;4.60;99.90
46732;DHT22;32477;51.474;5.696;2023-02-01T04:07:45;4.70;99.90
46732;DHT22;32477;51.474;5.696;2023-02-01T04:10:12;4.70;99.90
46732;DHT22;32477;51.474;5.696;2023-02-01T04:12:39;4.60;99.90
46732;DHT22;32477;51.474;5.696;2023-02-01T04:15:05;4.60;99.90
46732;DHT22;32477;51.474;5.696;2023-02-01T04:17:31;4.70;99.90
46732;DHT22;32477;51.474;5.696;2023-02-01T04:19:56;4.70;99.90
46732;DHT22;32477;51.474;5.696;2023-02-01T04:22:22;4.60;99.90
46732;DHT22;32477;51.474;5.696;2023-02-01T04:24:48;4.60;99.90
46732;DHT22;32477;51.474;5.696;2023-02-01T04:27:14;4.60;99.90
46732;DHT22;32477;51.474;5.696;2023-02-01T04:29:39;4.50;99.90
46732;DHT22;32477;51.474;5.696;2023-02-01T04:32:05;4.50;99.90
46732;DHT22;32477;51.474;5.696;2023-02-01T04:34:31;4.50;99.90
46732;DHT22;32477;51.474;5.696;2023-02-01T04:36:57;4.50;99.90
46732;DHT22;32477;51.474;5.696;2023-02-01T04:39:22;4.40;99.90
46732;DHT22;32477;51.474;5.696;2023-02-01T04:41:48;4.40;99.90
46732;DHT22;32477;51.474;5.696;2023-02-01T04:44:15;4.40;99.90
46732;DHT22;32477;51.474;5.696;2023-02-01T04:46:42;4.40;99.90
46732;DHT22;32477;51.474;5.696;2023-02-01T04:49:12;4.40;99.90
46732;DHT22;32477;51.474;5.696;2023-02-01T04:51:38;4.30;99.90
46732;DHT22;32477;51.474;5.696;2023-02-01T04:54:04;4.40;99.90
46732;DHT22;32477;51.474;5.696;2023-02-01T04:56:30;4.40;99.90
46732;DHT22;32477;51.474;5.696;2023-02-01T04:58:55;4.30;99.90
46732;DHT22;32477;51.474;5.696;2023-02-01T05:01:22;4.30;99.90
46732;DHT22;32477;51.474;5.696;2023-02-01T05:03:48;4.30;99.90
46732;DHT22;32477;51.474;5.696;2023-02-01T05:06:14;4.20;99.90
46732;DHT22;32477;51.474;5.696;2023-02-01T05:08:39;4.20;99.90
46732;DHT22;32477;51.474;5.696;2023-02-01T05:11:05;4.20;99.90
46732;DHT22;32477;51.474;5.696;2023-02-01T05:13:31;4.20;99.90
46732;DHT22;32477;51.474;5.696;2023-02-01T05:16:15;4.20;99.90
46732;DHT22;32477;51.474;5.696;2023-02-01T05:18:41;4.30;99.90
46732;DHT22;32477;51.474;5.696;2023-02-01T05:21:07;4.50;99.90
46732;DHT22;32477;51.474;5.696;2023-02-01T05:23:32;4.60;99.90
46732;DHT22;32477;51.474;5.696;2023-02-01T05:26:18;4.70;99.90
46732;DHT22;32477;51.474;5.696;2023-02-01T05:28:44;4.80;99.90
46732;DHT22;32477;51.474;5.696;2023-02-01T05:31:10;4.80;99.90
46732;DHT22;32477;51.474;5.696;2023-02-01T05:33:36;4.80;99.90
46732;DHT22;32477;51.474;5.696;2023-02-01T05:36:02;4.80;99.90
46732;DHT22;32477;51.474;5.696;2023-02-01T05:38:28;4.90;99.90
46732;DHT22;32477;51.474;5.696;2023-02-01T05:40:55;4.90;99.90
46732;DHT22;32477;51.474;5.696;2023-02-01T05:43:22;4.90;99.90
46732;DHT22;32477;51.474;5.696;2023-02-01T05:45:48;4.90;99.90
46732;DHT22;32477;51.474;5.696;2023-02-01T05:48:14;5.00;99.90
46732;DHT22;32477;51.474;5.696;2023-02-01T05:50:39;5.00;99.90
46732;DHT22;32477;51.474;5.696;2023-02-01T05:53:05;5.10;99.90
46732;DHT22;32477;51.474;5.696;2023-02-01T05:55:31;5.10;99.90
46732;DHT22;32477;51.474;5.696;2023-02-01T05:57:57;5.10;99.90
46732;DHT22;32477;51.474;5.696;2023-02-01T06:00:23;5.20;99.90
46732;DHT22;32477;51.474;5.696;2023-02-01T06:02:48;5.20;99.90
46732;DHT22;32477;51.474;5.696;2023-02-01T06:05:14;5.20;99.90
46732;DHT22;32477;51.474;5.696;2023-02-01T06:07:39;5.10;99.90
46732;DHT22;32477;51.474;5.696;2023-02-01T06:10:05;5.10;99.90
46732;DHT22;32477;51.474;5.696;2023-02-01T06:12:31;5.20;99.90
46732;DHT22;32477;51.474;5.696;2023-02-01T06:14:57;5.10;99.90
46732;DHT22;32477;51.474;5.696;2023-02-01T06:17:24;5.20;99.90
46732;DHT22;32477;51.474;5.696;2023-02-01T06:19:50;5.20;99.90
46732;DHT22;32477;51.474;5.696;2023-02-01T06:22:16;5.20;99.90
46732;DHT22;32477;51.474;5.696;2023-02-01T06:24:42;5.10;99.90
46732;DHT22;32477;51.474;5.696;2023-02-01T06:27:07;5.10;99.90
46732;DHT22;32477;51.474;5.696;2023-02-01T06:29:34;5.10;99.90
46732;DHT22;32477;51.474;5.696;2023-02-01T06:32:00;5.10;99.90
46732;DHT22;32477;51.474;5.696;2023-02-01T06:34:26;5.20;99.90
46732;DHT22;32477;51.474;5.696;2023-02-01T06:36:51;5.20;99.90
46732;DHT22;32477;51.474;5.696;2023-02-01T06:39:17;5.20;99.90
46732;DHT22;32477;51.474;5.696;2023-02-01T06:41:46;5.20;99.90
46732;DHT22;32477;51.474;5.696;2023-02-01T06:44:12;5.30;99.90
46732;DHT22;32477;51.474;5.696;2023-02-01T06:46:38;5.30;99.90
46732;DHT22;32477;51.474;5.696;2023-02-01T06:49:03;5.40;99.90
46732;DHT22;32477;51.474;5.696;2023-02-01T06:51:29;5.40;99.90
46732;DHT22;32477;51.474;5.696;2023-02-01T06:53:55;5.40;99.90
46732;DHT22;32477;51.474;5.696;2023-02-01T06:56:21;5.40;99.90
46732;DHT22;32477;51.474;5.696;2023-02-01T06:58:47;5.50;99.90
46732;DHT22;32477;51.474;5.696;2023-02-01T07:01:13;5.50;99.90
46732;DHT22;32477;51.474;5.696;2023-02-01T07:03:40;5.50;99.90
46732;DHT22;32477;51.474;5.696;2023-02-01T07:06:07;5.40;99.90
46732;DHT22;32477;51.474;5.696;2023-02-01T07:08:35;5.40;99.90
46732;DHT22;32477;51.474;5.696;2023-02-01T07:11:06;5.40;99.90
46732;DHT22;32477;51.474;5.696;2023-02-01T07:13:32;5.40;99.90
46732;DHT22;32477;51.474;5.696;2023-02-01T07:16:03;5.30;99.90
46732;DHT22;32477;51.474;5.696;2023-02-01T07:18:30;5.20;99.90
46732;DHT22;32477;51.474;5.696;2023-02-01T07:20:56;5.10;99.90
46732;DHT22;32477;51.474;5.696;2023-02-01T07:23:22;5.10;99.90
46732;DHT22;32477;51.474;5.696;2023-02-01T07:25:48;5.00;99.90
46732;DHT22;32477;51.474;5.696;2023-02-01T07:28:17;4.90;99.90
46732;DHT22;32477;51.474;5.696;2023-02-01T07:30:43;4.90;99.90
46732;DHT22;32477;51.474;5.696;2023-02-01T07:33:09;4.90;99.90
46732;DHT22;32477;51.474;5.696;2023-02-01T07:35:34;4.80;99.90
46732;DHT22;32477;51.474;5.696;2023-02-01T07:38:00;4.90;99.90
46732;DHT22;32477;51.474;5.696;2023-02-01T07:40:25;4.90;99.90
46732;DHT22;32477;51.474;5.696;2023-02-01T07:42:57;5.00;99.90
46732;DHT22;32477;51.474;5.696;2023-02-01T07:45:23;4.90;99.90
46732;DHT22;32477;51.474;5.696;2023-02-01T07:47:48;4.80;99.90
46732;DHT22;32477;51.474;5.696;2023-02-01T07:50:14;4.70;99.90
46732;DHT22;32477;51.474;5.696;2023-02-01T07:52:40;4.80;99.90
46732;DHT22;32477;51.474;5.696;2023-02-01T07:55:06;4.90;99.90
46732;DHT22;32477;51.474;5.696;2023-02-01T07:57:32;4.90;99.90
46732;DHT22;32477;51.474;5.696;2023-02-01T07:59:58;4.90;99.90
46732;DHT22;32477;51.474;5.696;2023-02-01T08:02:42;4.90;99.90
46732;DHT22;32477;51.474;5.696;2023-02-01T08:05:08;5.00;99.90
46732;DHT22;32477;51.474;5.696;2023-02-01T08:07:34;5.00;99.90
46732;DHT22;32477;51.474;5.696;2023-02-01T08:09:59;5.00;99.90
46732;DHT22;32477;51.474;5.696;2023-02-01T08:12:25;5.00;99.90
46732;DHT22;32477;51.474;5.696;2023-02-01T08:14:52;5.00;99.90
46732;DHT22;32477;51.474;5.696;2023-02-01T08:17:19;5.10;99.90
46732;DHT22;32477;51.474;5.696;2023-02-01T08:19:44;5.20;99.90
46732;DHT22;32477;51.474;5.696;2023-02-01T08:22:10;5.20;99.90
46732;DHT22;32477;51.474;5.696;2023-02-01T08:24:35;5.30;99.90
46732;DHT22;32477;51.474;5.696;2023-02-01T08:27:03;5.40;99.90
46732;DHT22;32477;51.474;5.696;2023-02-01T08:29:29;5.60;99.90
46732;DHT22;32477;51.474;5.696;2023-02-01T08:31:54;5.70;99.90
46732;DHT22;32477;51.474;5.696;2023-02-01T08:34:20;5.80;99.90
46732;DHT22;32477;51.474;5.696;2023-02-01T08:36:45;6.00;99.90
46732;DHT22;32477;51.474;5.696;2023-02-01T08:39:11;6.10;99.90
46732;DHT22;32477;51.474;5.696;2023-02-01T08:41:37;6.10;99.90
46732;DHT22;32477;51.474;5.696;2023-02-01T08:44:03;6.00;99.90
46732;DHT22;32477;51.474;5.696;2023-02-01T08:46:29;6.00;99.90
46732;DHT22;32477;51.474;5.696;2023-02-01T08:48:54;6.10;99.90
46732;DHT22;32477;51.474;5.696;2023-02-01T08:51:22;6.10;99.90
46732;DHT22;32477;51.474;5.696;2023-02-01T08:53:47;6.30;99.90
46732;DHT22;32477;51.474;5.696;2023-02-01T08:56:16;6.40;99.90
46732;DHT22;32477;51.474;5.696;2023-02-01T08:58:42;6.60;99.90
46732;DHT22;32477;51.474;5.696;2023-02-01T09:01:14;6.60;99.90
46732;DHT22;32477;51.474;5.696;2023-02-01T09:03:40;6.80;99.90
46732;DHT22;32477;51.474;5.696;2023-02-01T09:06:11;7.00;99.90
46732;DHT22;32477;51.474;5.696;2023-02-01T09:08:38;7.10;99.90
46732;DHT22;32477;51.474;5.696;2023-02-01T09:11:06;7.10;99.90
46732;DHT22;32477;51.474;5.696;2023-02-01T09:13:32;7.10;99.90
46732;DHT22;32477;51.474;5.696;2023-02-01T09:15:59;7.10;99.90
46732;DHT22;32477;51.474;5.696;2023-02-01T09:18:25;7.10;99.90
46732;DHT22;32477;51.474;5.696;2023-02-01T09:20:51;7.10;99.90
46732;DHT22;32477;51.474;5.696;2023-02-01T09:23:16;7.00;99.90
46732;DHT22;32477;51.474;5.696;2023-02-01T09:25:42;6.90;99.90
46732;DHT22;32477;51.474;5.696;2023-02-01T09:28:08;6.90;99.90
46732;DHT22;32477;51.474;5.696;2023-02-01T09:30:35;7.10;99.90
46732;DHT22;32477;51.474;5.696;2023-02-01T09:33:01;7.20;99.90
46732;DHT22;32477;51.474;5.696;2023-02-01T09:35:26;7.40;99.90
46732;DHT22;32477;51.474;5.696;2023-02-01T09:37:53;7.50;99.90
46732;DHT22;32477;51.474;5.696;2023-02-01T09:40:19;7.50;99.90
46732;DHT22;32477;51.474;5.696;2023-02-01T09:43:17;7.40;99.90
46732;DHT22;32477;51.474;5.696;2023-02-01T09:46:04;7.40;99.90
46732;DHT22;32477;51.474;5.696;2023-02-01T09:48:37;7.50;99.90
46732;DHT22;32477;51.474;5.696;2023-02-01T09:51:06;7.60;99.90
46732;DHT22;32477;51.474;5.696;2023-02-01T09:53:41;7.70;99.90
46732;DHT22;32477;51.474;5.696;2023-02-01T09:58:49;7.60;99.90
46732;DHT22;32477;51.474;5.696;2023-02-01T10:01:23;7.70;99.90
46732;DHT22;32477;51.474;5.696;2023-02-01T10:03:51;7.80;99.90
46732;DHT22;32477;51.474;5.696;2023-02-01T10:09:24;7.80;99.90
46732;DHT22;32477;51.474;5.696;2023-02-01T10:20:04;8.20;99.90
46732;DHT22;32477;51.474;5.696;2023-02-01T10:22:46;8.40;99.90
46732;DHT22;32477;51.474;5.696;2023-02-01T10:25:21;8.70;99.90
46732;DHT22;32477;51.474;5.696;2023-02-01T10:27:49;9.00;99.90
46732;DHT22;32477;51.474;5.696;2023-02-01T10:30:23;9.40;99.90
46732;DHT22;32477;51.474;5.696;2023-02-01T10:32:54;9.60;99.90
46732;DHT22;32477;51.474;5.696;2023-02-01T10:35:31;9.60;99.90
46732;DHT22;32477;51.474;5.696;2023-02-01T10:38:16;9.40;99.90
46732;DHT22;32477;51.474;5.696;2023-02-01T10:40:42;9.10;99.90
46732;DHT22;32477;51.474;5.696;2023-02-01T10:43:09;9.10;99.90
46732;DHT22;32477;51.474;5.696;2023-02-01T10:45:35;9.00;99.90
46732;DHT22;32477;51.474;5.696;2023-02-01T10:48:03;8.90;99.90
46732;DHT22;32477;51.474;5.696;2023-02-01T10:50:51;8.80;99.90
46732;DHT22;32477;51.474;5.696;2023-02-01T10:53:35;8.70;99.90
46732;DHT22;32477;51.474;5.696;2023-02-01T10:56:09;8.70;99.90
46732;DHT22;32477;51.474;5.696;2023-02-01T10:58:36;8.60;99.90
46732;DHT22;32477;51.474;5.696;2023-02-01T11:01:08;8.60;99.90
46732;DHT22;32477;51.474;5.696;2023-02-01T11:03:45;8.50;99.90
46732;DHT22;32477;51.474;5.696;2023-02-01T11:09:01;8.30;99.90
46732;DHT22;32477;51.474;5.696;2023-02-01T11:14:38;8.30;99.90
46732;DHT22;32477;51.474;5.696;2023-02-01T11:20:00;8.30;99.90
46732;DHT22;32477;51.474;5.696;2023-02-01T11:22:27;8.30;99.90
46732;DHT22;32477;51.474;5.696;2023-02-01T11:24:54;8.40;99.90
46732;DHT22;32477;51.474;5.696;2023-02-01T11:27:22;8.50;99.90
46732;DHT22;32477;51.474;5.696;2023-02-01T11:29:53;8.50;99.90
46732;DHT22;32477;51.474;5.696;2023-02-01T11:32:22;8.50;99.90
46732;DHT22;32477;51.474;5.696;2023-02-01T11:34:55;8.40;99.90
46732;DHT22;32477;51.474;5.696;2023-02-01T11:37:34;8.30;99.90
46732;DHT22;32477;51.474;5.696;2023-02-01T11:40:22;8.30;99.90
46732;DHT22;32477;51.474;5.696;2023-02-01T11:43:11;8.30;99.90
46732;DHT22;32477;51.474;5.696;2023-02-01T11:45:38;8.40;99.90
46732;DHT22;32477;51.474;5.696;2023-02-01T11:48:10;8.30;99.90
46732;DHT22;32477;51.474;5.696;2023-02-01T11:50:57;8.20;99.90
46732;DHT22;32477;51.474;5.696;2023-02-01T11:56:32;8.30;99.90
46732;DHT22;32477;51.474;5.696;2023-02-01T11:59:32;8.30;99.90
46732;DHT22;32477;51.474;5.696;2023-02-01T12:05:10;8.40;99.90
46732;DHT22;32477;51.474;5.696;2023-02-01T12:16:19;8.30;99.90
46732;DHT22;32477;51.474;5.696;2023-02-01T12:18:58;8.30;99.90
46732;DHT22;32477;51.474;5.696;2023-02-01T12:21:33;8.30;99.90
46732;DHT22;32477;51.474;5.696;2023-02-01T12:32:11;8.40;99.90
46732;DHT22;32477;51.474;5.696;2023-02-01T12:42:46;8.60;99.90
46732;DHT22;32477;51.474;5.696;2023-02-01T12:45:15;8.60;99.90
46732;DHT22;32477;51.474;5.696;2023-02-01T12:47:53;8.60;99.90
46732;DHT22;32477;51.474;5.696;2023-02-01T12:50:29;8.50;99.90
46732;DHT22;32477;51.474;5.696;2023-02-01T12:53:08;8.50;99.90
46732;DHT22;32477;51.474;5.696;2023-02-01T12:55:38;8.50;99.90
46732;DHT22;32477;51.474;5.696;2023-02-01T12:58:15;8.50;99.90
46732;DHT22;32477;51.474;5.696;2023-02-01T13:00:51;8.60;99.90
46732;DHT22;32477;51.474;5.696;2023-02-01T13:08:57;8.70;99.90
46732;DHT22;32477;51.474;5.696;2023-02-01T13:11:34;8.70;99.90
46732;DHT22;32477;51.474;5.696;2023-02-01T13:16:59;8.70;99.90
46732;DHT22;32477;51.474;5.696;2023-02-01T13:19:32;8.70;99.90
46732;DHT22;32477;51.474;5.696;2023-02-01T13:22:05;8.70;99.90
46732;DHT22;32477;51.474;5.696;2023-02-01T13:24:44;8.70;99.90
46732;DHT22;32477;51.474;5.696;2023-02-01T13:27:12;8.70;99.90
46732;DHT22;32477;51.474;5.696;2023-02-01T13:29:48;8.80;99.90
46732;DHT22;32477;51.474;5.696;2023-02-01T13:35:13;9.10;99.90
46732;DHT22;32477;51.474;5.696;2023-02-01T13:42:54;9.40;99.90
46732;DHT22;32477;51.474;5.696;2023-02-01T13:45:30;9.70;99.90
46732;DHT22;32477;51.474;5.696;2023-02-01T13:48:03;9.80;99.90
46732;DHT22;32477;51.474;5.696;2023-02-01T13:50:31;9.70;99.90
46732;DHT22;32477;51.474;5.696;2023-02-01T13:53:46;9.60;99.90
46732;DHT22;32477;51.474;5.696;2023-02-01T13:56:19;9.40;99.90
46732;DHT22;32477;51.474;5.696;2023-02-01T13:58:47;9.20;99.90
46732;DHT22;32477;51.474;5.696;2023-02-01T14:04:01;9.20;99.90
46732;DHT22;32477;51.474;5.696;2023-02-01T14:09:16;9.10;99.90
46732;DHT22;32477;51.474;5.696;2023-02-01T14:11:51;9.00;99.90
46732;DHT22;32477;51.474;5.696;2023-02-01T14:16:44;8.90;99.90
46732;DHT22;32477;51.474;5.696;2023-02-01T14:19:31;8.90;99.90
46732;DHT22;32477;51.474;5.696;2023-02-01T14:21:59;8.90;99.90
46732;DHT22;32477;51.474;5.696;2023-02-01T14:24:33;9.00;99.90
46732;DHT22;32477;51.474;5.696;2023-02-01T14:27:06;8.90;99.90
46732;DHT22;32477;51.474;5.696;2023-02-01T14:29:42;8.90;99.90
46732;DHT22;32477;51.474;5.696;2023-02-01T14:32:22;8.90;99.90
46732;DHT22;32477;51.474;5.696;2023-02-01T14:34:53;8.90;99.90
46732;DHT22;32477;51.474;5.696;2023-02-01T14:39:59;8.90;99.90
46732;DHT22;32477;51.474;5.696;2023-02-01T14:47:45;8.80;99.90
46732;DHT22;32477;51.474;5.696;2023-02-01T14:52:58;8.80;99.90
46732;DHT22;32477;51.474;5.696;2023-02-01T15:00:53;8.70;99.90
46732;DHT22;32477;51.474;5.696;2023-02-01T15:03:24;8.60;99.90
46732;DHT22;32477;51.474;5.696;2023-02-01T15:05:55;8.60;99.90
46732;DHT22;32477;51.474;5.696;2023-02-01T15:08:27;8.60;99.90
46732;DHT22;32477;51.474;5.696;2023-02-01T15:10:54;8.50;99.90
46732;DHT22;32477;51.474;5.696;2023-02-01T15:13:25;8.50;99.90
46732;DHT22;32477;51.474;5.696;2023-02-01T15:16:14;8.50;99.90
46732;DHT22;32477;51.474;5.696;2023-02-01T15:18:40;8.50;99.90
46732;DHT22;32477;51.474;5.696;2023-02-01T15:21:14;8.60;99.90
46732;DHT22;32477;51.474;5.696;2023-02-01T15:23:40;8.60;99.90
46732;DHT22;32477;51.474;5.696;2023-02-01T15:26:06;8.60;99.90
46732;DHT22;32477;51.474;5.696;2023-02-01T15:28:31;8.50;99.90
46732;DHT22;32477;51.474;5.696;2023-02-01T15:31:04;8.50;99.90
46732;DHT22;32477;51.474;5.696;2023-02-01T15:33:31;8.50;99.90
46732;DHT22;32477;51.474;5.696;2023-02-01T15:36:09;8.50;99.90
46732;DHT22;32477;51.474;5.696;2023-02-01T15:38:40;8.50;99.90
46732;DHT22;32477;51.474;5.696;2023-02-01T15:41:14;8.50;99.90
46732;DHT22;32477;51.474;5.696;2023-02-01T15:43:47;8.50;99.90
46732;DHT22;32477;51.474;5.696;2023-02-01T15:46:18;8.50;99.90
46732;DHT22;32477;51.474;5.696;2023-02-01T15:48:52;8.50;99.90
46732;DHT22;32477;51.474;5.696;2023-02-01T15:51:20;8.50;99.90
46732;DHT22;32477;51.474;5.696;2023-02-01T15:53:56;8.50;99.90
46732;DHT22;32477;51.474;5.696;2023-02-01T15:56:25;8.40;99.90
46732;DHT22;32477;51.474;5.696;2023-02-01T15:58:54;8.40;99.90
46732;DHT22;32477;51.474;5.696;2023-02-01T16:01:21;8.40;99.90
46732;DHT22;32477;51.474;5.696;2023-02-01T16:03:47;8.30;99.90
46732;DHT22;32477;51.474;5.696;2023-02-01T16:08:54;8.40;99.90
46732;DHT22;32477;51.474;5.696;2023-02-01T16:11:21;8.30;99.90
46732;DHT22;32477;51.474;5.696;2023-02-01T16:13:48;8.40;99.90
46732;DHT22;32477;51.474;5.696;2023-02-01T16:16:14;8.40;99.90
46732;DHT22;32477;51.474;5.696;2023-02-01T16:18:43;8.30;99.90
46732;DHT22;32477;51.474;5.696;2023-02-01T16:21:09;8.30;99.90
46732;DHT22;32477;51.474;5.696;2023-02-01T16:23:35;8.30;99.90
46732;DHT22;32477;51.474;5.696;2023-02-01T16:26:02;8.30;99.90
46732;DHT22;32477;51.474;5.696;2023-02-01T16:28:28;8.20;99.90
46732;DHT22;32477;51.474;5.696;2023-02-01T16:30:53;8.20;99.90
46732;DHT22;32477;51.474;5.696;2023-02-01T16:33:20;8.20;99.90
46732;DHT22;32477;51.474;5.696;2023-02-01T16:35:48;8.10;99.90
46732;DHT22;32477;51.474;5.696;2023-02-01T16:38:16;8.10;99.90
46732;DHT22;32477;51.474;5.696;2023-02-01T16:40:44;8.00;99.90
46732;DHT22;32477;51.474;5.696;2023-02-01T16:43:20;7.90;99.90
46732;DHT22;32477;51.474;5.696;2023-02-01T16:45:47;7.90;99.90
46732;DHT22;32477;51.474;5.696;2023-02-01T16:48:25;8.00;99.90
46732;DHT22;32477;51.474;5.696;2023-02-01T16:50:54;8.00;99.90
46732;DHT22;32477;51.474;5.696;2023-02-01T16:53:25;7.90;99.90
46732;DHT22;32477;51.474;5.696;2023-02-01T16:55:52;7.90;99.90
46732;DHT22;32477;51.474;5.696;2023-02-01T16:58:19;7.90;99.90
46732;DHT22;32477;51.474;5.696;2023-02-01T17:00:46;8.00;99.90
46732;DHT22;32477;51.474;5.696;2023-02-01T17:03:13;8.00;99.90
46732;DHT22;32477;51.474;5.696;2023-02-01T17:05:43;8.00;99.90
46732;DHT22;32477;51.474;5.696;2023-02-01T17:08:13;8.00;99.90
46732;DHT22;32477;51.474;5.696;2023-02-01T17:10:39;8.00;99.90
46732;DHT22;32477;51.474;5.696;2023-02-01T17:13:10;8.10;99.90
46732;DHT22;32477;51.474;5.696;2023-02-01T17:15:37;8.10;99.90
46732;DHT22;32477;51.474;5.696;2023-02-01T17:18:03;8.10;99.90
46732;DHT22;32477;51.474;5.696;2023-02-01T17:20:30;8.10;99.90
46732;DHT22;32477;51.474;5.696;2023-02-01T17:22:59;8.20;99.90
46732;DHT22;32477;51.474;5.696;2023-02-01T17:25:26;8.20;99.90
46732;DHT22;32477;51.474;5.696;2023-02-01T17:27:52;8.30;99.90
46732;DHT22;32477;51.474;5.696;2023-02-01T17:30:18;8.20;99.90
46732;DHT22;32477;51.474;5.696;2023-02-01T17:32:44;8.20;99.90
46732;DHT22;32477;51.474;5.696;2023-02-01T17:35:21;8.30;99.90
46732;DHT22;32477;51.474;5.696;2023-02-01T17:37:48;8.20;99.90
46732;DHT22;32477;51.474;5.696;2023-02-01T17:40:14;8.20;99.90
46732;DHT22;32477;51.474;5.696;2023-02-01T17:42:40;8.10;99.90
46732;DHT22;32477;51.474;5.696;2023-02-01T17:45:32;8.10;99.90
46732;DHT22;32477;51.474;5.696;2023-02-01T17:47:58;8.20;99.90
46732;DHT22;32477;51.474;5.696;2023-02-01T17:50:26;8.10;99.90
46732;DHT22;32477;51.474;5.696;2023-02-01T17:52:53;8.20;99.90
46732;DHT22;32477;51.474;5.696;2023-02-01T17:55:21;8.10;99.90
46732;DHT22;32477;51.474;5.696;2023-02-01T17:57:48;8.10;99.90
46732;DHT22;32477;51.474;5.696;2023-02-01T18:00:15;8.10;99.90
46732;DHT22;32477;51.474;5.696;2023-02-01T18:02:42;8.20;99.90
46732;DHT22;32477;51.474;5.696;2023-02-01T18:05:25;8.20;99.90